sensor_id;sensor_type;location;lat;lon;timestamp;temperature;humidity
15630;DHT22;7914;50.842;0.166;2024-03-22T00:01:12;9.60;100.00
15630;DHT22;7914;50.842;0.166;2024-03-22T00:03:38;9.70;100.00
15630;DHT22;7914;50.842;0.166;2024-03-22T00:06:04;9.70;100.00
15630;DHT22;7914;50.842;0.166;2024-03-22T00:08:30;9.60;100.00
15630;DHT22;7914;50.842;0.166;2024-03-22T00:10:55;9.70;100.00
15630;DHT22;7914;50.842;0.166;2024-03-22T00:13:21;9.60;100.00
15630;DHT22;7914;50.842;0.166;2024-03-22T00:15:47;9.60;100.00
15630;DHT22;7914;50.842;0.166;2024-03-22T00:18:13;9.60;100.00
15630;DHT22;7914;50.842;0.166;2024-03-22T00:20:38;9.70;100.00
15630;DHT22;7914;50.842;0.166;2024-03-22T00:23:04;9.60;100.00
15630;DHT22;7914;50.842;0.166;2024-03-22T00:25:31;9.60;100.00
15630;DHT22;7914;50.842;0.166;2024-03-22T00:27:57;9.60;100.00
15630;DHT22;7914;50.842;0.166;2024-03-22T00:30:22;9.60;100.00
15630;DHT22;7914;50.842;0.166;2024-03-22T00:32:48;9.60;100.00
15630;DHT22;7914;50.842;0.166;2024-03-22T00:35:14;9.60;100.00
15630;DHT22;7914;50.842;0.166;2024-03-22T00:37:40;9.70;100.00
15630;DHT22;7914;50.842;0.166;2024-03-22T00:40:06;9.70;100.00
15630;DHT22;7914;50.842;0.166;2024-03-22T00:42:32;9.70;100.00
15630;DHT22;7914;50.842;0.166;2024-03-22T00:44:58;9.70;100.00
15630;DHT22;7914;50.842;0.166;2024-03-22T00:47:23;9.70;100.00
15630;DHT22;7914;50.842;0.166;2024-03-22T00:49:49;9.70;100.00
15630;DHT22;7914;50.842;0.166;2024-03-22T00:52:15;9.60;100.00
15630;DHT22;7914;50.842;0.166;2024-03-22T00:54:41;9.50;100.00
15630;DHT22;7914;50.842;0.166;2024-03-22T00:57:06;9.60;100.00
15630;DHT22;7914;50.842;0.166;2024-03-22T00:59:32;9.60;100.00
15630;DHT22;7914;50.842;0.166;2024-03-22T01:01:58;9.60;100.00
15630;DHT22;7914;50.842;0.166;2024-03-22T01:04:24;9.60;100.00
15630;DHT22;7914;50.842;0.166;2024-03-22T01:06:49;9.60;100.00
15630;DHT22;7914;50.842;0.166;2024-03-22T01:09:15;9.60;100.00
15630;DHT22;7914;50.842;0.166;2024-03-22T01:11:41;9.60;100.00
15630;DHT22;7914;50.842;0.166;2024-03-22T01:14:06;9.70;100.00
15630;DHT22;7914;50.842;0.166;2024-03-22T01:16:32;9.70;100.00
15630;DHT22;7914;50.842;0.166;2024-03-22T01:18:58;9.70;100.00
15630;DHT22;7914;50.842;0.166;2024-03-22T01:21:24;9.70;100.00
15630;DHT22;7914;50.842;0.166;2024-03-22T01:23:53;9.70;100.00
15630;DHT22;7914;50.842;0.166;2024-03-22T01:26:19;9.70;100.00
15630;DHT22;7914;50.842;0.166;2024-03-22T01:28:46;9.70;100.00
15630;DHT22;7914;50.842;0.166;2024-03-22T01:31:11;9.70;100.00
15630;DHT22;7914;50.842;0.166;2024-03-22T01:33:37;9.70;100.00
15630;DHT22;7914;50.842;0.166;2024-03-22T01:36:03;9.70;100.00
15630;DHT22;7914;50.842;0.166;2024-03-22T01:38:31;9.70;100.00
15630;DHT22;7914;50.842;0.166;2024-03-22T01:40:56;9.70;100.00
15630;DHT22;7914;50.842;0.166;2024-03-22T01:43:22;9.70;100.00
15630;DHT22;7914;50.842;0.166;2024-03-22T01:45:48;9.70;100.00
15630;DHT22;7914;50.842;0.166;2024-03-22T01:48:14;9.70;100.00
15630;DHT22;7914;50.842;0.166;2024-03-22T01:50:40;9.60;100.00
15630;DHT22;7914;50.842;0.166;2024-03-22T01:53:06;9.60;100.00
15630;DHT22;7914;50.842;0.166;2024-03-22T01:55:32;9.60;100.00
15630;DHT22;7914;50.842;0.166;2024-03-22T01:57:58;9.70;100.00
15630;DHT22;7914;50.842;0.166;2024-03-22T02:00:24;9.70;100.00
15630;DHT22;7914;50.842;0.166;2024-03-22T02:02:53;9.70;100.00
15630;DHT22;7914;50.842;0.166;2024-03-22T02:05:18;9.70;100.00
15630;DHT22;7914;50.842;0.166;2024-03-22T02:07:47;9.70;100.00
15630;DHT22;7914;50.842;0.166;2024-03-22T02:10:14;9.70;100.00
15630;DHT22;7914;50.842;0.166;2024-03-22T02:12:40;9.60;100.00
15630;DHT22;7914;50.842;0.166;2024-03-22T02:15:07;9.60;100.00
15630;DHT22;7914;50.842;0.166;2024-03-22T02:17:34;9.70;100.00
15630;DHT22;7914;50.842;0.166;2024-03-22T02:20:00;9.70;100.00
15630;DHT22;7914;50.842;0.166;2024-03-22T02:22:26;9.60;100.00
15630;DHT22;7914;50.842;0.166;2024-03-22T02:24:53;9.70;100.00
15630;DHT22;7914;50.842;0.166;2024-03-22T02:27:18;9.70;100.00
15630;DHT22;7914;50.842;0.166;2024-03-22T02:29:44;9.60;100.00
15630;DHT22;7914;50.842;0.166;2024-03-22T02:32:10;9.70;100.00
15630;DHT22;7914;50.842;0.166;2024-03-22T02:34:36;9.60;100.00
15630;DHT22;7914;50.842;0.166;2024-03-22T02:37:01;9.60;100.00
15630;DHT22;7914;50.842;0.166;2024-03-22T02:39:27;9.60;100.00
15630;DHT22;7914;50.842;0.166;2024-03-22T02:41:54;9.60;100.00
15630;DHT22;7914;50.842;0.166;2024-03-22T02:44:20;9.60;100.00
15630;DHT22;7914;50.842;0.166;2024-03-22T02:46:45;9.60;100.00
15630;DHT22;7914;50.842;0.166;2024-03-22T02:49:11;9.70;100.00
15630;DHT22;7914;50.842;0.166;2024-03-22T02:51:37;9.60;100.00
15630;DHT22;7914;50.842;0.166;2024-03-22T02:54:03;9.60;100.00
15630;DHT22;7914;50.842;0.166;2024-03-22T02:56:29;9.60;100.00
15630;DHT22;7914;50.842;0.166;2024-03-22T02:58:55;9.60;100.00
15630;DHT22;7914;50.842;0.166;2024-03-22T03:01:20;9.60;100.00
15630;DHT22;7914;50.842;0.166;2024-03-22T03:03:46;9.60;100.00
15630;DHT22;7914;50.842;0.166;2024-03-22T03:06:12;9.60;100.00
15630;DHT22;7914;50.842;0.166;2024-03-22T03:08:42;9.60;100.00
15630;DHT22;7914;50.842;0.166;2024-03-22T03:11:08;9.60;100.00
15630;DHT22;7914;50.842;0.166;2024-03-22T03:13:33;9.50;100.00
15630;DHT22;7914;50.842;0.166;2024-03-22T03:15:59;9.50;100.00
15630;DHT22;7914;50.842;0.166;2024-03-22T03:18:25;9.50;100.00
15630;DHT22;7914;50.842;0.166;2024-03-22T03:20:50;9.50;100.00
15630;DHT22;7914;50.842;0.166;2024-03-22T03:23:16;9.50;100.00
15630;DHT22;7914;50.842;0.166;2024-03-22T03:25:42;9.50;100.00
15630;DHT22;7914;50.842;0.166;2024-03-22T03:28:07;9.60;100.00
15630;DHT22;7914;50.842;0.166;2024-03-22T03:30:36;9.50;100.00
15630;DHT22;7914;50.842;0.166;2024-03-22T03:33:02;9.60;100.00
15630;DHT22;7914;50.842;0.166;2024-03-22T03:35:27;9.60;100.00
15630;DHT22;7914;50.842;0.166;2024-03-22T03:37:54;9.60;100.00
15630;DHT22;7914;50.842;0.166;2024-03-22T03:40:20;9.60;100.00
15630;DHT22;7914;50.842;0.166;2024-03-22T03:42:47;9.60;100.00
15630;DHT22;7914;50.842;0.166;2024-03-22T03:45:13;9.60;100.00
15630;DHT22;7914;50.842;0.166;2024-03-22T03:47:38;9.60;100.00
15630;DHT22;7914;50.842;0.166;2024-03-22T03:50:04;9.50;100.00
15630;DHT22;7914;50.842;0.166;2024-03-22T03:52:30;9.50;100.00
15630;DHT22;7914;50.842;0.166;2024-03-22T03:54:56;9.50;100.00
15630;DHT22;7914;50.842;0.166;2024-03-22T03:57:21;9.40;100.00
15630;DHT22;7914;50.842;0.166;2024-03-22T03:59:47;9.40;100.00
15630;DHT22;7914;50.842;0.166;2024-03-22T04:02:13;9.40;100.00
15630;DHT22;7914;50.842;0.166;2024-03-22T04:04:39;9.50;100.00
15630;DHT22;7914;50.842;0.166;2024-03-22T04:07:05;9.40;100.00
15630;DHT22;7914;50.842;0.166;2024-03-22T04:09:30;9.50;100.00
15630;DHT22;7914;50.842;0.166;2024-03-22T04:11:57;9.50;100.00
15630;DHT22;7914;50.842;0.166;2024-03-22T04:14:25;9.50;100.00
15630;DHT22;7914;50.842;0.166;2024-03-22T04:16:51;9.40;100.00
15630;DHT22;7914;50.842;0.166;2024-03-22T04:19:16;9.40;100.00
15630;DHT22;7914;50.842;0.166;2024-03-22T04:21:42;9.40;100.00
15630;DHT22;7914;50.842;0.166;2024-03-22T04:24:08;9.50;100.00
15630;DHT22;7914;50.842;0.166;2024-03-22T04:26:34;9.50;100.00
15630;DHT22;7914;50.842;0.166;2024-03-22T04:29:02;9.50;100.00
15630;DHT22;7914;50.842;0.166;2024-03-22T04:31:28;9.50;100.00
15630;DHT22;7914;50.842;0.166;2024-03-22T04:33:54;9.50;100.00
15630;DHT22;7914;50.842;0.166;2024-03-22T04:36:19;9.50;100.00
15630;DHT22;7914;50.842;0.166;2024-03-22T04:38:45;9.50;100.00
15630;DHT22;7914;50.842;0.166;2024-03-22T04:41:11;9.50;100.00
15630;DHT22;7914;50.842;0.166;2024-03-22T04:43:37;9.60;100.00
15630;DHT22;7914;50.842;0.166;2024-03-22T04:46:02;9.60;100.00
15630;DHT22;7914;50.842;0.166;2024-03-22T04:48:28;9.60;100.00
15630;DHT22;7914;50.842;0.166;2024-03-22T04:50:54;9.60;100.00
15630;DHT22;7914;50.842;0.166;2024-03-22T04:53:21;9.60;100.00
15630;DHT22;7914;50.842;0.166;2024-03-22T04:55:47;9.60;100.00
15630;DHT22;7914;50.842;0.166;2024-03-22T04:58:18;9.60;100.00
15630;DHT22;7914;50.842;0.166;2024-03-22T05:00:44;9.60;100.00
15630;DHT22;7914;50.842;0.166;2024-03-22T05:03:10;9.60;100.00
15630;DHT22;7914;50.842;0.166;2024-03-22T05:05:37;9.60;100.00
15630;DHT22;7914;50.842;0.166;2024-03-22T05:08:03;9.60;100.00
15630;DHT22;7914;50.842;0.166;2024-03-22T05:10:30;9.60;100.00
15630;DHT22;7914;50.842;0.166;2024-03-22T05:12:59;9.70;100.00
15630;DHT22;7914;50.842;0.166;2024-03-22T05:15:25;9.70;100.00
15630;DHT22;7914;50.842;0.166;2024-03-22T05:17:51;9.70;100.00
15630;DHT22;7914;50.842;0.166;2024-03-22T05:20:17;9.80;100.00
15630;DHT22;7914;50.842;0.166;2024-03-22T05:22:43;9.80;100.00
15630;DHT22;7914;50.842;0.166;2024-03-22T05:25:09;9.70;100.00
15630;DHT22;7914;50.842;0.166;2024-03-22T05:27:35;9.70;100.00
15630;DHT22;7914;50.842;0.166;2024-03-22T05:30:01;9.80;100.00
15630;DHT22;7914;50.842;0.166;2024-03-22T05:32:29;9.80;100.00
15630;DHT22;7914;50.842;0.166;2024-03-22T05:34:55;9.70;100.00
15630;DHT22;7914;50.842;0.166;2024-03-22T05:37:21;9.80;100.00
15630;DHT22;7914;50.842;0.166;2024-03-22T05:39:47;9.70;100.00
15630;DHT22;7914;50.842;0.166;2024-03-22T05:42:13;9.70;100.00
15630;DHT22;7914;50.842;0.166;2024-03-22T05:44:39;9.80;100.00
15630;DHT22;7914;50.842;0.166;2024-03-22T05:47:04;9.80;100.00
15630;DHT22;7914;50.842;0.166;2024-03-22T05:49:30;9.70;100.00
15630;DHT22;7914;50.842;0.166;2024-03-22T05:51:56;9.70;100.00
15630;DHT22;7914;50.842;0.166;2024-03-22T05:54:22;9.70;100.00
15630;DHT22;7914;50.842;0.166;2024-03-22T05:56:48;9.80;100.00
15630;DHT22;7914;50.842;0.166;2024-03-22T05:59:13;9.80;100.00
15630;DHT22;7914;50.842;0.166;2024-03-22T06:01:39;9.80;100.00
15630;DHT22;7914;50.842;0.166;2024-03-22T06:04:05;9.80;100.00
15630;DHT22;7914;50.842;0.166;2024-03-22T06:06:33;9.80;100.00
15630;DHT22;7914;50.842;0.166;2024-03-22T06:08:59;9.80;100.00
15630;DHT22;7914;50.842;0.166;2024-03-22T06:11:28;9.80;100.00
15630;DHT22;7914;50.842;0.166;2024-03-22T06:13:54;9.80;100.00
15630;DHT22;7914;50.842;0.166;2024-03-22T06:16:19;9.90;100.00
15630;DHT22;7914;50.842;0.166;2024-03-22T06:18:45;9.80;100.00
15630;DHT22;7914;50.842;0.166;2024-03-22T06:21:11;9.90;100.00
15630;DHT22;7914;50.842;0.166;2024-03-22T06:23:36;9.90;100.00
15630;DHT22;7914;50.842;0.166;2024-03-22T06:26:02;9.80;100.00
15630;DHT22;7914;50.842;0.166;2024-03-22T06:28:28;9.80;100.00
15630;DHT22;7914;50.842;0.166;2024-03-22T06:30:54;9.90;100.00
15630;DHT22;7914;50.842;0.166;2024-03-22T06:33:20;9.90;100.00
15630;DHT22;7914;50.842;0.166;2024-03-22T06:35:46;9.90;100.00
15630;DHT22;7914;50.842;0.166;2024-03-22T06:38:12;9.90;100.00
15630;DHT22;7914;50.842;0.166;2024-03-22T06:40:38;9.90;100.00
15630;DHT22;7914;50.842;0.166;2024-03-22T06:43:04;9.90;100.00
15630;DHT22;7914;50.842;0.166;2024-03-22T06:45:29;9.90;100.00
15630;DHT22;7914;50.842;0.166;2024-03-22T06:47:55;10.00;100.00
15630;DHT22;7914;50.842;0.166;2024-03-22T06:50:22;10.00;100.00
15630;DHT22;7914;50.842;0.166;2024-03-22T06:52:51;10.00;100.00
15630;DHT22;7914;50.842;0.166;2024-03-22T06:55:19;10.00;100.00
15630;DHT22;7914;50.842;0.166;2024-03-22T06:57:46;10.00;100.00
15630;DHT22;7914;50.842;0.166;2024-03-22T07:00:13;10.00;100.00
15630;DHT22;7914;50.842;0.166;2024-03-22T07:02:39;10.00;100.00
15630;DHT22;7914;50.842;0.166;2024-03-22T07:05:08;10.10;100.00
15630;DHT22;7914;50.842;0.166;2024-03-22T07:07:35;10.00;100.00
15630;DHT22;7914;50.842;0.166;2024-03-22T07:10:01;10.00;100.00
15630;DHT22;7914;50.842;0.166;2024-03-22T07:12:27;10.10;100.00
15630;DHT22;7914;50.842;0.166;2024-03-22T07:14:52;10.10;100.00
15630;DHT22;7914;50.842;0.166;2024-03-22T07:17:18;10.10;100.00
15630;DHT22;7914;50.842;0.166;2024-03-22T07:19:52;10.10;100.00
15630;DHT22;7914;50.842;0.166;2024-03-22T07:22:18;10.10;100.00
15630;DHT22;7914;50.842;0.166;2024-03-22T07:24:44;10.10;100.00
15630;DHT22;7914;50.842;0.166;2024-03-22T07:27:11;10.20;100.00
15630;DHT22;7914;50.842;0.166;2024-03-22T07:29:36;10.10;100.00
15630;DHT22;7914;50.842;0.166;2024-03-22T07:32:02;10.10;100.00
15630;DHT22;7914;50.842;0.166;2024-03-22T07:34:29;10.20;100.00
15630;DHT22;7914;50.842;0.166;2024-03-22T07:36:55;10.20;100.00
15630;DHT22;7914;50.842;0.166;2024-03-22T07:39:21;10.20;100.00
15630;DHT22;7914;50.842;0.166;2024-03-22T07:41:46;10.20;100.00
15630;DHT22;7914;50.842;0.166;2024-03-22T07:44:12;10.30;100.00
15630;DHT22;7914;50.842;0.166;2024-03-22T07:46:38;10.30;100.00
15630;DHT22;7914;50.842;0.166;2024-03-22T07:49:03;10.30;100.00
15630;DHT22;7914;50.842;0.166;2024-03-22T07:51:30;10.30;100.00
15630;DHT22;7914;50.842;0.166;2024-03-22T07:53:56;10.30;100.00
15630;DHT22;7914;50.842;0.166;2024-03-22T07:56:21;10.20;100.00
15630;DHT22;7914;50.842;0.166;2024-03-22T07:58:47;10.20;100.00
15630;DHT22;7914;50.842;0.166;2024-03-22T08:01:13;10.20;100.00
15630;DHT22;7914;50.842;0.166;2024-03-22T08:03:39;10.20;100.00
15630;DHT22;7914;50.842;0.166;2024-03-22T08:06:05;10.30;100.00
15630;DHT22;7914;50.842;0.166;2024-03-22T08:08:30;10.30;100.00
15630;DHT22;7914;50.842;0.166;2024-03-22T08:10:56;10.30;100.00
15630;DHT22;7914;50.842;0.166;2024-03-22T08:13:22;10.20;100.00
15630;DHT22;7914;50.842;0.166;2024-03-22T08:15:48;10.30;100.00
15630;DHT22;7914;50.842;0.166;2024-03-22T08:18:13;10.40;100.00
15630;DHT22;7914;50.842;0.166;2024-03-22T08:20:39;10.40;100.00
15630;DHT22;7914;50.842;0.166;2024-03-22T08:23:05;10.30;100.00
15630;DHT22;7914;50.842;0.166;2024-03-22T08:25:31;10.40;100.00
15630;DHT22;7914;50.842;0.166;2024-03-22T08:27:57;10.40;100.00
15630;DHT22;7914;50.842;0.166;2024-03-22T08:30:24;10.50;100.00
15630;DHT22;7914;50.842;0.166;2024-03-22T08:32:51;10.50;100.00
15630;DHT22;7914;50.842;0.166;2024-03-22T08:35:17;10.50;100.00
15630;DHT22;7914;50.842;0.166;2024-03-22T08:37:42;10.50;100.00
15630;DHT22;7914;50.842;0.166;2024-03-22T08:40:09;10.50;100.00
15630;DHT22;7914;50.842;0.166;2024-03-22T08:42:36;10.60;100.00
15630;DHT22;7914;50.842;0.166;2024-03-22T08:45:01;10.60;100.00
15630;DHT22;7914;50.842;0.166;2024-03-22T08:47:30;10.60;100.00
15630;DHT22;7914;50.842;0.166;2024-03-22T08:49:55;10.70;100.00
15630;DHT22;7914;50.842;0.166;2024-03-22T08:52:23;10.70;100.00
15630;DHT22;7914;50.842;0.166;2024-03-22T08:54:53;10.80;100.00
15630;DHT22;7914;50.842;0.166;2024-03-22T08:57:18;10.80;100.00
15630;DHT22;7914;50.842;0.166;2024-03-22T08:59:45;10.90;100.00
15630;DHT22;7914;50.842;0.166;2024-03-22T09:02:11;11.00;100.00
15630;DHT22;7914;50.842;0.166;2024-03-22T09:04:37;11.00;100.00
15630;DHT22;7914;50.842;0.166;2024-03-22T09:07:03;11.10;100.00
15630;DHT22;7914;50.842;0.166;2024-03-22T09:09:29;11.10;100.00
15630;DHT22;7914;50.842;0.166;2024-03-22T09:11:55;11.00;100.00
15630;DHT22;7914;50.842;0.166;2024-03-22T09:14:21;11.00;100.00
15630;DHT22;7914;50.842;0.166;2024-03-22T09:16:46;11.10;100.00
15630;DHT22;7914;50.842;0.166;2024-03-22T09:19:12;11.10;100.00
15630;DHT22;7914;50.842;0.166;2024-03-22T09:21:38;11.10;100.00
15630;DHT22;7914;50.842;0.166;2024-03-22T09:24:03;11.20;100.00
15630;DHT22;7914;50.842;0.166;2024-03-22T09:26:32;11.40;100.00
15630;DHT22;7914;50.842;0.166;2024-03-22T09:28:58;11.60;100.00
15630;DHT22;7914;50.842;0.166;2024-03-22T09:31:23;11.70;100.00
15630;DHT22;7914;50.842;0.166;2024-03-22T09:33:49;11.70;100.00
15630;DHT22;7914;50.842;0.166;2024-03-22T09:36:15;11.80;100.00
15630;DHT22;7914;50.842;0.166;2024-03-22T09:38:43;11.80;100.00
15630;DHT22;7914;50.842;0.166;2024-03-22T09:41:09;11.80;100.00
15630;DHT22;7914;50.842;0.166;2024-03-22T09:43:36;11.80;100.00
15630;DHT22;7914;50.842;0.166;2024-03-22T09:46:05;11.90;100.00
15630;DHT22;7914;50.842;0.166;2024-03-22T09:48:31;12.00;100.00
15630;DHT22;7914;50.842;0.166;2024-03-22T09:50:58;12.10;100.00
15630;DHT22;7914;50.842;0.166;2024-03-22T09:53:27;12.10;100.00
15630;DHT22;7914;50.842;0.166;2024-03-22T09:55:57;12.20;100.00
15630;DHT22;7914;50.842;0.166;2024-03-22T09:58:24;12.00;100.00
15630;DHT22;7914;50.842;0.166;2024-03-22T10:00:50;11.90;100.00
15630;DHT22;7914;50.842;0.166;2024-03-22T10:03:16;12.00;100.00
15630;DHT22;7914;50.842;0.166;2024-03-22T10:05:42;12.10;100.00
15630;DHT22;7914;50.842;0.166;2024-03-22T10:08:07;12.30;100.00
15630;DHT22;7914;50.842;0.166;2024-03-22T10:10:33;12.40;100.00
15630;DHT22;7914;50.842;0.166;2024-03-22T10:13:05;12.60;100.00
15630;DHT22;7914;50.842;0.166;2024-03-22T10:15:31;12.60;100.00
15630;DHT22;7914;50.842;0.166;2024-03-22T10:17:57;12.60;100.00
15630;DHT22;7914;50.842;0.166;2024-03-22T10:20:23;12.70;100.00
15630;DHT22;7914;50.842;0.166;2024-03-22T10:22:56;12.60;100.00
15630;DHT22;7914;50.842;0.166;2024-03-22T10:25:26;12.50;100.00
15630;DHT22;7914;50.842;0.166;2024-03-22T10:27:54;12.50;100.00
15630;DHT22;7914;50.842;0.166;2024-03-22T10:30:23;12.50;100.00
15630;DHT22;7914;50.842;0.166;2024-03-22T10:32:50;12.60;100.00
15630;DHT22;7914;50.842;0.166;2024-03-22T10:35:16;12.80;100.00
15630;DHT22;7914;50.842;0.166;2024-03-22T10:37:42;12.80;100.00
15630;DHT22;7914;50.842;0.166;2024-03-22T10:40:08;12.80;100.00
15630;DHT22;7914;50.842;0.166;2024-03-22T10:42:39;12.60;100.00
15630;DHT22;7914;50.842;0.166;2024-03-22T10:45:07;12.70;100.00
15630;DHT22;7914;50.842;0.166;2024-03-22T10:47:34;12.80;100.00
15630;DHT22;7914;50.842;0.166;2024-03-22T10:52:34;12.80;100.00
15630;DHT22;7914;50.842;0.166;2024-03-22T10:55:02;12.90;100.00
15630;DHT22;7914;50.842;0.166;2024-03-22T10:57:30;12.90;100.00
15630;DHT22;7914;50.842;0.166;2024-03-22T10:59:56;12.90;100.00
15630;DHT22;7914;50.842;0.166;2024-03-22T11:02:24;12.80;100.00
15630;DHT22;7914;50.842;0.166;2024-03-22T11:04:59;12.70;100.00
15630;DHT22;7914;50.842;0.166;2024-03-22T11:07:31;12.70;100.00
15630;DHT22;7914;50.842;0.166;2024-03-22T11:09:57;12.70;100.00
15630;DHT22;7914;50.842;0.166;2024-03-22T11:12:26;12.80;100.00
15630;DHT22;7914;50.842;0.166;2024-03-22T11:14:54;13.00;100.00
15630;DHT22;7914;50.842;0.166;2024-03-22T11:17:20;13.00;100.00
15630;DHT22;7914;50.842;0.166;2024-03-22T11:19:53;12.90;100.00
15630;DHT22;7914;50.842;0.166;2024-03-22T11:22:19;12.80;100.00
15630;DHT22;7914;50.842;0.166;2024-03-22T11:24:44;12.70;100.00
15630;DHT22;7914;50.842;0.166;2024-03-22T11:27:11;12.60;100.00
15630;DHT22;7914;50.842;0.166;2024-03-22T11:29:37;12.50;100.00
15630;DHT22;7914;50.842;0.166;2024-03-22T11:32:07;12.50;100.00
15630;DHT22;7914;50.842;0.166;2024-03-22T11:34:37;12.40;100.00
15630;DHT22;7914;50.842;0.166;2024-03-22T11:37:07;12.40;100.00
15630;DHT22;7914;50.842;0.166;2024-03-22T11:39:39;12.40;100.00
15630;DHT22;7914;50.842;0.166;2024-03-22T11:42:06;12.40;100.00
15630;DHT22;7914;50.842;0.166;2024-03-22T11:44:37;12.40;100.00
15630;DHT22;7914;50.842;0.166;2024-03-22T11:47:04;12.40;100.00
15630;DHT22;7914;50.842;0.166;2024-03-22T11:49:30;12.40;100.00
15630;DHT22;7914;50.842;0.166;2024-03-22T11:51:56;12.40;100.00
15630;DHT22;7914;50.842;0.166;2024-03-22T11:54:22;12.50;100.00
15630;DHT22;7914;50.842;0.166;2024-03-22T11:56:49;12.40;100.00
15630;DHT22;7914;50.842;0.166;2024-03-22T11:59:17;12.40;100.00
15630;DHT22;7914;50.842;0.166;2024-03-22T12:01:44;12.20;100.00
15630;DHT22;7914;50.842;0.166;2024-03-22T12:04:11;12.20;100.00
15630;DHT22;7914;50.842;0.166;2024-03-22T12:06:44;12.20;100.00
15630;DHT22;7914;50.842;0.166;2024-03-22T12:09:11;12.10;100.00
15630;DHT22;7914;50.842;0.166;2024-03-22T12:11:38;12.10;100.00
15630;DHT22;7914;50.842;0.166;2024-03-22T12:14:04;12.10;100.00
15630;DHT22;7914;50.842;0.166;2024-03-22T12:16:30;12.10;100.00
15630;DHT22;7914;50.842;0.166;2024-03-22T12:18:56;12.20;100.00
15630;DHT22;7914;50.842;0.166;2024-03-22T12:21:22;12.20;100.00
15630;DHT22;7914;50.842;0.166;2024-03-22T12:23:47;12.20;100.00
15630;DHT22;7914;50.842;0.166;2024-03-22T12:26:13;12.20;100.00
15630;DHT22;7914;50.842;0.166;2024-03-22T12:28:39;12.30;100.00
15630;DHT22;7914;50.842;0.166;2024-03-22T12:31:05;12.20;100.00
15630;DHT22;7914;50.842;0.166;2024-03-22T12:33:30;12.30;100.00
15630;DHT22;7914;50.842;0.166;2024-03-22T12:35:56;12.40;100.00
15630;DHT22;7914;50.842;0.166;2024-03-22T12:38:22;12.60;100.00
15630;DHT22;7914;50.842;0.166;2024-03-22T12:40:48;12.90;100.00
15630;DHT22;7914;50.842;0.166;2024-03-22T12:43:14;13.20;100.00
15630;DHT22;7914;50.842;0.166;2024-03-22T12:45:40;13.40;100.00
15630;DHT22;7914;50.842;0.166;2024-03-22T12:48:05;13.50;100.00
15630;DHT22;7914;50.842;0.166;2024-03-22T12:50:31;13.40;100.00
15630;DHT22;7914;50.842;0.166;2024-03-22T12:52:58;13.50;100.00
15630;DHT22;7914;50.842;0.166;2024-03-22T12:55:24;13.40;100.00
15630;DHT22;7914;50.842;0.166;2024-03-22T12:57:51;13.20;100.00
15630;DHT22;7914;50.842;0.166;2024-03-22T13:00:17;13.30;100.00
15630;DHT22;7914;50.842;0.166;2024-03-22T13:02:46;13.30;100.00
15630;DHT22;7914;50.842;0.166;2024-03-22T13:05:12;13.30;100.00
15630;DHT22;7914;50.842;0.166;2024-03-22T13:07:38;13.20;100.00
15630;DHT22;7914;50.842;0.166;2024-03-22T13:10:04;13.20;100.00
15630;DHT22;7914;50.842;0.166;2024-03-22T13:12:31;13.20;100.00
15630;DHT22;7914;50.842;0.166;2024-03-22T13:14:57;13.20;100.00
15630;DHT22;7914;50.842;0.166;2024-03-22T13:17:23;13.30;100.00
15630;DHT22;7914;50.842;0.166;2024-03-22T13:19:49;13.40;100.00
15630;DHT22;7914;50.842;0.166;2024-03-22T13:22:15;13.50;100.00
15630;DHT22;7914;50.842;0.166;2024-03-22T13:24:44;13.50;100.00
15630;DHT22;7914;50.842;0.166;2024-03-22T13:27:10;13.70;100.00
15630;DHT22;7914;50.842;0.166;2024-03-22T13:29:36;13.60;100.00
15630;DHT22;7914;50.842;0.166;2024-03-22T13:32:01;13.40;100.00
15630;DHT22;7914;50.842;0.166;2024-03-22T13:34:28;13.20;100.00
15630;DHT22;7914;50.842;0.166;2024-03-22T13:36:53;12.80;100.00
15630;DHT22;7914;50.842;0.166;2024-03-22T13:39:19;12.50;100.00
15630;DHT22;7914;50.842;0.166;2024-03-22T13:41:45;12.50;100.00
15630;DHT22;7914;50.842;0.166;2024-03-22T13:44:11;12.40;100.00
15630;DHT22;7914;50.842;0.166;2024-03-22T13:46:37;12.20;100.00
15630;DHT22;7914;50.842;0.166;2024-03-22T13:49:14;12.00;100.00
15630;DHT22;7914;50.842;0.166;2024-03-22T13:51:41;11.80;100.00
15630;DHT22;7914;50.842;0.166;2024-03-22T13:54:07;11.70;100.00
15630;DHT22;7914;50.842;0.166;2024-03-22T13:56:33;11.60;100.00
15630;DHT22;7914;50.842;0.166;2024-03-22T13:58:58;11.50;100.00
15630;DHT22;7914;50.842;0.166;2024-03-22T14:01:24;11.40;100.00
15630;DHT22;7914;50.842;0.166;2024-03-22T14:03:50;11.40;100.00
15630;DHT22;7914;50.842;0.166;2024-03-22T14:06:15;11.40;100.00
15630;DHT22;7914;50.842;0.166;2024-03-22T14:08:41;11.20;100.00
15630;DHT22;7914;50.842;0.166;2024-03-22T14:11:07;11.20;100.00
15630;DHT22;7914;50.842;0.166;2024-03-22T14:13:33;11.20;100.00
15630;DHT22;7914;50.842;0.166;2024-03-22T14:15:59;11.10;100.00
15630;DHT22;7914;50.842;0.166;2024-03-22T14:18:24;11.10;100.00
15630;DHT22;7914;50.842;0.166;2024-03-22T14:20:50;11.20;100.00
15630;DHT22;7914;50.842;0.166;2024-03-22T14:23:16;11.20;100.00
15630;DHT22;7914;50.842;0.166;2024-03-22T14:25:42;11.00;100.00
15630;DHT22;7914;50.842;0.166;2024-03-22T14:28:10;11.00;100.00
15630;DHT22;7914;50.842;0.166;2024-03-22T14:30:35;11.10;100.00
15630;DHT22;7914;50.842;0.166;2024-03-22T14:33:01;11.00;100.00
15630;DHT22;7914;50.842;0.166;2024-03-22T14:35:27;11.10;100.00
15630;DHT22;7914;50.842;0.166;2024-03-22T14:37:52;11.10;100.00
15630;DHT22;7914;50.842;0.166;2024-03-22T14:40:18;11.10;100.00
15630;DHT22;7914;50.842;0.166;2024-03-22T14:42:44;11.10;100.00
15630;DHT22;7914;50.842;0.166;2024-03-22T14:45:10;11.00;100.00
15630;DHT22;7914;50.842;0.166;2024-03-22T14:47:36;11.00;100.00
15630;DHT22;7914;50.842;0.166;2024-03-22T14:50:02;10.80;100.00
15630;DHT22;7914;50.842;0.166;2024-03-22T14:52:29;10.80;100.00
15630;DHT22;7914;50.842;0.166;2024-03-22T14:54:54;10.80;100.00
15630;DHT22;7914;50.842;0.166;2024-03-22T14:57:20;10.80;100.00
15630;DHT22;7914;50.842;0.166;2024-03-22T14:59:46;10.70;100.00
15630;DHT22;7914;50.842;0.166;2024-03-22T15:02:14;10.60;100.00
15630;DHT22;7914;50.842;0.166;2024-03-22T15:04:39;10.60;100.00
15630;DHT22;7914;50.842;0.166;2024-03-22T15:07:05;10.50;100.00
15630;DHT22;7914;50.842;0.166;2024-03-22T15:09:31;10.50;100.00
15630;DHT22;7914;50.842;0.166;2024-03-22T15:11:57;10.50;100.00
15630;DHT22;7914;50.842;0.166;2024-03-22T15:14:25;10.40;100.00
15630;DHT22;7914;50.842;0.166;2024-03-22T15:16:55;10.30;100.00
15630;DHT22;7914;50.842;0.166;2024-03-22T15:19:21;10.20;100.00
15630;DHT22;7914;50.842;0.166;2024-03-22T15:21:47;10.20;100.00
15630;DHT22;7914;50.842;0.166;2024-03-22T15:24:13;10.20;100.00
15630;DHT22;7914;50.842;0.166;2024-03-22T15:26:39;10.10;100.00
15630;DHT22;7914;50.842;0.166;2024-03-22T15:29:04;10.10;100.00
15630;DHT22;7914;50.842;0.166;2024-03-22T15:31:31;10.00;100.00
15630;DHT22;7914;50.842;0.166;2024-03-22T15:33:57;9.90;100.00